createdAt,value
2018-11-11T00:01:11.020Z,101726.67
2018-11-11T00:03:39.947Z,101724.61
2018-11-11T00:06:08.889Z,101727.94
2018-11-11T00:08:37.863Z,101725.84
2018-11-11T00:11:06.895Z,101721.57
2018-11-11T00:13:35.774Z,101726.20
2018-11-11T00:16:04.700Z,101730.29
2018-11-11T00:18:34.892Z,101724.95
2018-11-11T00:21:03.886Z,101731.47
2018-11-11T00:23:32.858Z,101722.53
2018-11-11T00:26:01.763Z,101719.45
2018-11-11T00:28:30.724Z,101725.00
2018-11-11T00:30:59.574Z,101722.69
2018-11-11T00:33:28.543Z,101726.45
2018-11-11T00:35:57.450Z,101727.02
2018-11-11T00:38:26.309Z,101728.02
2018-11-11T00:40:55.254Z,101722.65
2018-11-11T00:43:24.283Z,101718.61
2018-11-11T00:45:53.159Z,101709.63
2018-11-11T00:48:22.028Z,101710.72
2018-11-11T00:50:50.955Z,101712.50
2018-11-11T00:53:20.472Z,101708.63
2018-11-11T00:55:49.603Z,101711.16
2018-11-11T00:58:18.528Z,101708.20
2018-11-11T01:00:47.495Z,101714.75
2018-11-11T01:03:16.416Z,101701.94
2018-11-11T01:05:45.321Z,101711.33
2018-11-11T01:08:14.267Z,101717.02
2018-11-11T01:10:43.200Z,101715.72
2018-11-11T01:13:12.219Z,101713.17
2018-11-11T01:15:41.187Z,101710.89
2018-11-11T01:18:10.173Z,101708.58
2018-11-11T01:20:39.074Z,101708.66
2018-11-11T01:23:08.029Z,101706.28
2018-11-11T01:25:36.949Z,101709.27
2018-11-11T01:28:06.010Z,101706.44
2018-11-11T01:30:34.887Z,101706.06
2018-11-11T01:33:03.744Z,101708.86
2018-11-11T01:35:32.713Z,101706.34
2018-11-11T01:38:01.572Z,101704.60
2018-11-11T01:40:30.458Z,101704.25
2018-11-11T01:42:59.471Z,101708.41
2018-11-11T01:45:28.371Z,101705.62
2018-11-11T01:47:57.309Z,101712.91
2018-11-11T01:50:26.295Z,101707.86
2018-11-11T01:52:55.144Z,101708.02
2018-11-11T01:55:24.060Z,101710.44
2018-11-11T01:57:53.003Z,101714.77
2018-11-11T02:00:21.943Z,101712.18
2018-11-11T02:02:50.841Z,101714.16
2018-11-11T02:05:19.818Z,101709.31
2018-11-11T02:07:49.221Z,101711.89
2018-11-11T02:10:18.229Z,101706.95
2018-11-11T02:12:47.572Z,101709.30
2018-11-11T02:15:17.564Z,101714.86
2018-11-11T02:17:46.527Z,101717.80
2018-11-11T02:20:17.628Z,101719.16
2018-11-11T02:22:47.851Z,101728.26
2018-11-11T02:25:16.723Z,101724.20
2018-11-11T02:27:46.008Z,101728.81
2018-11-11T02:30:19.379Z,101722.17
2018-11-11T02:32:49.807Z,101725.75
2018-11-11T02:35:18.707Z,101721.87
2018-11-11T02:37:47.683Z,101725.91
2018-11-11T02:40:17.827Z,101730.38
2018-11-11T02:42:47.214Z,101728.45
2018-11-11T02:45:17.275Z,101731.22
2018-11-11T02:47:46.184Z,101735.35
2018-11-11T02:50:16.228Z,101739.33
2018-11-11T02:52:45.685Z,101739.92
2018-11-11T02:55:14.950Z,101740.22
2018-11-11T02:57:44.298Z,101737.70
2018-11-11T03:00:18.741Z,101740.77
2018-11-11T03:02:48.028Z,101743.50
2018-11-11T03:05:17.771Z,101738.44
2018-11-11T03:07:46.748Z,101748.17
2018-11-11T03:10:16.728Z,101757.75
2018-11-11T03:12:46.514Z,101754.05
2018-11-11T03:15:16.334Z,101753.03
2018-11-11T03:17:45.269Z,101756.80
2018-11-11T03:20:14.861Z,101756.77
2018-11-11T03:22:43.787Z,101758.50
2018-11-11T03:25:13.943Z,101764.17
2018-11-11T03:27:43.198Z,101760.60
2018-11-11T03:30:13.648Z,101765.58
2018-11-11T03:32:42.619Z,101771.20
2018-11-11T03:35:12.547Z,101761.89
2018-11-11T03:37:42.009Z,101765.36
2018-11-11T03:40:13.390Z,101762.69
2018-11-11T03:42:42.532Z,101768.61
2018-11-11T03:45:13.927Z,101764.43
2018-11-11T03:47:43.683Z,101765.50
2018-11-11T03:50:12.734Z,101770.00
2018-11-11T03:52:41.932Z,101765.31
2018-11-11T03:55:11.159Z,101768.86
2018-11-11T03:57:40.068Z,101769.64
2018-11-11T04:00:10.946Z,101767.77
2018-11-11T04:02:39.874Z,101768.02
2018-11-11T04:05:10.337Z,101767.23
2018-11-11T04:07:39.702Z,101769.52
2018-11-11T04:10:11.000Z,101773.41
2018-11-11T04:12:40.206Z,101779.07
2018-11-11T04:15:11.117Z,101771.77
2018-11-11T04:17:40.236Z,101769.84
2018-11-11T04:20:11.522Z,101776.52
2018-11-11T04:22:40.431Z,101777.72
2018-11-11T04:25:09.643Z,101779.98
2018-11-11T04:27:38.608Z,101775.62
2018-11-11T04:30:08.358Z,101785.81
2018-11-11T04:32:37.222Z,101794.73
2018-11-11T04:35:07.026Z,101791.14
2018-11-11T04:37:36.017Z,101795.97
2018-11-11T04:40:05.362Z,101797.34
2018-11-11T04:42:34.355Z,101799.81
2018-11-11T04:45:03.214Z,101799.47
2018-11-11T04:47:32.142Z,101796.99
2018-11-11T04:50:01.107Z,101794.03
2018-11-11T04:52:30.021Z,101803.34
2018-11-11T04:54:58.971Z,101800.45
2018-11-11T04:57:27.947Z,101802.71
2018-11-11T04:59:56.839Z,101801.98
2018-11-11T05:02:25.765Z,101812.04
2018-11-11T05:04:54.701Z,101813.89
2018-11-11T05:07:23.574Z,101820.27
2018-11-11T05:09:52.471Z,101820.77
2018-11-11T05:12:21.409Z,101821.97
2018-11-11T05:14:50.355Z,101833.75
2018-11-11T05:17:19.281Z,101834.06
2018-11-11T05:19:48.196Z,101838.23
2018-11-11T05:22:17.113Z,101840.09
2018-11-11T05:24:46.059Z,101809.12
2018-11-11T05:27:14.972Z,101850.20
2018-11-11T05:29:43.960Z,101858.50
2018-11-11T05:32:12.825Z,101866.63
2018-11-11T05:34:41.700Z,101869.38
2018-11-11T05:37:10.574Z,101863.21
2018-11-11T05:39:39.471Z,101863.76
2018-11-11T05:42:08.410Z,101862.72
2018-11-11T05:44:37.288Z,101875.48
2018-11-11T05:47:06.487Z,101876.42
2018-11-11T05:49:35.451Z,101879.36
2018-11-11T05:52:04.420Z,101882.55
2018-11-11T05:54:33.344Z,101883.38
2018-11-11T05:57:02.202Z,101889.55
2018-11-11T05:59:31.162Z,101889.39
2018-11-11T06:02:00.090Z,101890.25
2018-11-11T06:04:28.980Z,101887.94
2018-11-11T06:06:57.928Z,101887.75
2018-11-11T06:09:26.871Z,101883.80
2018-11-11T06:11:55.729Z,101885.47
2018-11-11T06:14:24.667Z,101886.55
2018-11-11T06:16:53.603Z,101892.36
2018-11-11T06:19:22.538Z,101891.19
2018-11-11T06:21:51.642Z,101893.30
2018-11-11T06:24:20.587Z,101899.04
2018-11-11T06:26:49.614Z,101893.21
2018-11-11T06:29:18.514Z,101896.23
2018-11-11T06:31:47.554Z,101899.92
2018-11-11T06:34:16.611Z,101901.63
2018-11-11T06:36:46.695Z,101900.57
2018-11-11T06:39:15.704Z,101904.20
2018-11-11T06:41:44.705Z,101910.52
2018-11-11T06:44:13.611Z,101907.84
2018-11-11T06:46:42.514Z,101904.70
2018-11-11T06:49:11.425Z,101897.75
2018-11-11T06:51:40.484Z,101909.98
2018-11-11T06:54:09.438Z,101904.94
2018-11-11T06:56:38.392Z,101908.03
2018-11-11T06:59:07.400Z,101913.87
2018-11-11T07:01:36.285Z,101912.20
2018-11-11T07:04:05.434Z,101910.27
2018-11-11T07:06:34.411Z,101910.70
2018-11-11T07:09:03.449Z,101904.44
2018-11-11T07:11:32.378Z,101913.94
2018-11-11T07:14:01.337Z,101917.09
2018-11-11T07:16:30.210Z,101914.66
2018-11-11T07:18:59.110Z,101911.69
2018-11-11T07:21:28.100Z,101918.91
2018-11-11T07:23:57.033Z,101915.96
2018-11-11T07:26:25.975Z,101913.55
2018-11-11T07:28:56.158Z,101922.77
2018-11-11T07:31:25.128Z,101919.28
2018-11-11T07:33:54.050Z,101921.73
2018-11-11T07:36:23.116Z,101922.23
2018-11-11T07:38:52.184Z,101930.78
2018-11-11T07:41:21.138Z,101929.35
2018-11-11T07:43:50.076Z,101932.27
2018-11-11T07:46:19.081Z,101936.20
2018-11-11T07:48:48.015Z,101931.27
2018-11-11T07:51:16.960Z,101941.48
2018-11-11T07:53:45.860Z,101940.52
2018-11-11T07:56:14.786Z,101939.86
2018-11-11T07:58:43.725Z,101950.82
2018-11-11T08:01:12.598Z,101946.97
2018-11-11T08:03:42.387Z,101942.72
2018-11-11T08:06:11.294Z,101946.22
2018-11-11T08:08:40.193Z,101946.09
2018-11-11T08:11:20.389Z,101948.34
2018-11-11T08:13:49.435Z,101945.05
2018-11-11T08:16:18.459Z,101949.70
2018-11-11T08:18:47.354Z,101948.12
2018-11-11T08:21:16.200Z,101950.66
2018-11-11T08:23:45.139Z,101948.13
2018-11-11T08:26:14.051Z,101949.74
2018-11-11T08:28:42.971Z,101960.28
2018-11-11T08:31:12.242Z,101957.83
2018-11-11T08:33:41.285Z,101954.88
2018-11-11T08:36:10.211Z,101959.22
2018-11-11T08:38:39.128Z,101957.41
2018-11-11T08:41:08.076Z,101962.63
2018-11-11T08:43:36.981Z,101959.23
2018-11-11T08:46:05.954Z,101958.91
2018-11-11T08:48:36.139Z,101955.13
2018-11-11T08:51:05.074Z,101958.52
2018-11-11T08:53:35.269Z,101966.88
2018-11-11T08:56:05.602Z,101958.64
2018-11-11T08:58:34.435Z,101957.05
2018-11-11T09:01:03.351Z,101959.06
2018-11-11T09:03:32.320Z,101950.66
2018-11-11T09:06:01.298Z,101956.91
2018-11-11T09:08:30.238Z,101957.31
2018-11-11T09:10:59.145Z,101958.66
2018-11-11T09:13:28.116Z,101955.02
2018-11-11T09:15:57.061Z,101953.78
2018-11-11T09:18:27.201Z,101954.58
2018-11-11T09:20:56.140Z,101956.25
2018-11-11T09:23:25.044Z,101959.48
2018-11-11T09:25:55.202Z,101951.28
2018-11-11T09:28:25.546Z,101944.00
2018-11-11T09:30:54.447Z,101949.70
2018-11-11T09:33:23.638Z,101945.80
2018-11-11T09:35:52.513Z,101945.19
2018-11-11T09:38:21.520Z,101943.54
2018-11-11T09:40:50.439Z,101944.84
2018-11-11T09:43:19.371Z,101941.59
2018-11-11T09:45:48.261Z,101937.78
2018-11-11T09:48:17.186Z,101931.70
2018-11-11T09:50:46.144Z,101934.05
2018-11-11T09:53:15.033Z,101934.45
2018-11-11T09:55:43.937Z,101934.76
2018-11-11T09:58:12.822Z,101934.24
2018-11-11T10:00:41.730Z,101937.24
2018-11-11T10:03:15.885Z,101936.36
2018-11-11T10:05:48.332Z,101936.99
2018-11-11T10:08:27.721Z,101935.25
2018-11-11T10:11:03.558Z,101931.84
2018-11-11T10:13:37.482Z,101934.84
2018-11-11T10:16:10.453Z,101928.68
2018-11-11T10:18:47.997Z,101941.65
2018-11-11T10:21:22.823Z,101939.90
2018-11-11T10:23:58.910Z,101933.63
2018-11-11T10:26:35.029Z,101932.09
2018-11-11T10:29:09.208Z,101935.63
2018-11-11T10:31:48.467Z,101930.52
2018-11-11T10:34:22.400Z,101926.78
2018-11-11T10:37:00.371Z,101924.63
2018-11-11T10:39:33.378Z,101919.33
2018-11-11T10:42:07.377Z,101912.21
2018-11-11T10:44:43.999Z,101919.06
2018-11-11T10:47:48.536Z,101912.41
2018-11-11T10:50:24.776Z,101913.42
2018-11-11T10:52:53.725Z,101913.16
2018-11-11T10:55:22.610Z,101910.69
2018-11-11T10:57:51.604Z,101913.63
2018-11-11T11:00:26.923Z,101911.70
2018-11-11T11:02:57.230Z,101914.17
2018-11-11T11:05:26.153Z,101912.48
2018-11-11T11:07:55.796Z,101907.80
2018-11-11T11:10:24.771Z,101903.68
2018-11-11T11:12:53.751Z,101911.76
2018-11-11T11:15:22.691Z,101907.20
2018-11-11T11:17:51.558Z,101903.02
2018-11-11T11:20:20.614Z,101903.56
2018-11-11T11:22:49.578Z,101898.86
2018-11-11T11:25:18.543Z,101897.42
2018-11-11T11:27:47.417Z,101898.80
2018-11-11T11:30:16.385Z,101891.56
2018-11-11T11:32:45.325Z,101891.88
2018-11-11T11:35:14.287Z,101888.48
2018-11-11T11:37:43.185Z,101882.93
2018-11-11T11:40:12.130Z,101883.91
2018-11-11T11:42:41.038Z,101883.66
2018-11-11T11:45:11.160Z,101880.47
2018-11-11T11:47:40.243Z,101883.91
2018-11-11T11:50:10.764Z,101879.32
2018-11-11T11:52:39.693Z,101876.73
2018-11-11T11:55:09.388Z,101887.51
2018-11-11T11:57:38.347Z,101885.13
2018-11-11T12:00:09.610Z,101886.91
2018-11-11T12:02:38.845Z,101883.56
2018-11-11T12:05:08.935Z,101890.61
2018-11-11T12:07:37.851Z,101890.14
2018-11-11T12:10:09.411Z,101887.01
2018-11-11T12:12:38.804Z,101885.86
2018-11-11T12:15:08.620Z,101888.05
2018-11-11T12:17:37.687Z,101886.69
2018-11-11T12:20:07.347Z,101884.38
2018-11-11T12:22:36.257Z,101887.07
2018-11-11T12:25:05.778Z,101890.84
2018-11-11T12:27:34.824Z,101891.52
2018-11-11T12:30:03.832Z,101895.29
2018-11-11T12:32:32.755Z,101897.79
2018-11-11T12:35:01.801Z,101903.66
2018-11-11T12:37:30.848Z,101904.98
2018-11-11T12:39:59.860Z,101905.58
2018-11-11T12:42:28.734Z,101910.22
2018-11-11T12:44:57.678Z,101910.19
2018-11-11T12:47:26.807Z,101911.33
2018-11-11T12:49:56.162Z,101915.38
2018-11-11T12:52:25.442Z,101915.73
2018-11-11T12:54:54.606Z,101911.47
2018-11-11T12:57:23.815Z,101918.98
2018-11-11T12:59:52.989Z,101919.24
2018-11-11T13:02:21.986Z,101923.29
2018-11-11T13:04:51.114Z,101914.63
2018-11-11T13:07:20.270Z,101916.22
2018-11-11T13:09:49.460Z,101915.67
2018-11-11T13:12:18.600Z,101916.08
2018-11-11T13:14:49.043Z,101918.14
2018-11-11T13:17:18.022Z,101913.19
2018-11-11T13:19:46.981Z,101916.30
2018-11-11T13:22:16.073Z,101918.36
2018-11-11T13:24:44.887Z,101923.30
2018-11-11T13:27:13.723Z,101920.77
2018-11-11T13:29:44.051Z,101918.84
2018-11-11T13:32:12.924Z,101930.34
2018-11-11T13:34:41.921Z,101926.33
2018-11-11T13:37:10.924Z,101929.42
2018-11-11T13:39:39.870Z,101934.83
2018-11-11T13:42:08.775Z,101935.98
2018-11-11T13:44:37.691Z,101934.28
2018-11-11T13:47:06.782Z,101945.41
2018-11-11T13:49:35.721Z,101942.77
2018-11-11T13:52:04.597Z,101943.14
2018-11-11T13:54:33.566Z,101938.05
2018-11-11T13:57:02.645Z,101937.44
2018-11-11T13:59:31.656Z,101940.22
2018-11-11T14:02:00.695Z,101936.11
2018-11-11T14:04:29.616Z,101941.17
2018-11-11T14:07:05.454Z,101942.80
2018-11-11T14:09:34.431Z,101948.37
2018-11-11T14:12:03.470Z,101946.98
2018-11-11T14:14:33.651Z,101942.59
2018-11-11T14:17:02.604Z,101955.08
2018-11-11T14:19:31.611Z,101956.52
2018-11-11T14:22:00.619Z,101952.04
2018-11-11T14:24:29.608Z,101955.97
2018-11-11T14:26:58.699Z,101957.38
2018-11-11T14:29:27.826Z,101952.09
2018-11-11T14:31:56.865Z,101951.09
2018-11-11T14:34:25.916Z,101949.43
2018-11-11T14:36:55.124Z,101947.43
2018-11-11T14:39:24.241Z,101949.28
2018-11-11T14:41:53.202Z,101957.20
2018-11-11T14:44:22.241Z,101951.19
2018-11-11T14:46:51.349Z,101952.30
2018-11-11T14:49:20.368Z,101944.33
2018-11-11T14:51:49.362Z,101948.49
2018-11-11T14:54:18.316Z,101953.50
2018-11-11T14:56:47.274Z,101950.30
2018-11-11T14:59:16.188Z,101959.59
2018-11-11T15:01:45.152Z,101957.98
2018-11-11T15:04:15.248Z,101955.63
2018-11-11T15:06:44.239Z,101951.14
2018-11-11T15:09:13.840Z,101959.94
2018-11-11T15:11:42.818Z,101958.14
2018-11-11T15:14:12.399Z,101966.86
2018-11-11T15:16:41.312Z,101971.69
2018-11-11T15:19:10.399Z,101967.98
2018-11-11T15:21:39.309Z,101968.30
2018-11-11T15:24:08.323Z,101975.21
2018-11-11T15:26:37.213Z,101975.31
2018-11-11T15:29:06.158Z,101982.58
2018-11-11T15:31:35.072Z,101982.34
2018-11-11T15:34:03.997Z,101981.38
2018-11-11T15:36:33.371Z,101983.21
2018-11-11T15:39:02.309Z,101989.98
2018-11-11T15:41:31.434Z,101993.97
2018-11-11T15:44:00.483Z,101995.05
2018-11-11T15:46:29.551Z,101992.37
2018-11-11T15:48:58.504Z,101996.45
2018-11-11T15:51:27.694Z,101997.98
2018-11-11T15:53:56.810Z,101998.41
2018-11-11T15:56:25.755Z,102004.09
2018-11-11T15:58:54.758Z,102007.16
2018-11-11T16:01:23.649Z,102002.16
2018-11-11T16:03:52.556Z,102005.12
2018-11-11T16:06:21.540Z,102000.58
2018-11-11T16:08:50.706Z,102007.95
2018-11-11T16:11:19.583Z,102004.18
2018-11-11T16:13:49.968Z,102005.31
2018-11-11T16:16:18.911Z,102007.36
2018-11-11T16:18:47.982Z,102008.38
2018-11-11T16:21:16.870Z,102002.98
2018-11-11T16:23:46.029Z,102000.66
2018-11-11T16:26:14.987Z,102007.28
2018-11-11T16:28:43.927Z,102013.64
2018-11-11T16:31:12.870Z,102019.49
2018-11-11T16:33:42.041Z,102014.73
2018-11-11T16:36:11.016Z,102022.63
2018-11-11T16:38:40.028Z,102016.25
2018-11-11T16:41:10.467Z,102020.41
2018-11-11T16:43:39.193Z,102030.95
2018-11-11T16:46:08.293Z,102023.66
2018-11-11T16:48:38.522Z,102026.72
2018-11-11T16:51:07.581Z,102028.62
2018-11-11T16:53:36.692Z,102027.63
2018-11-11T16:56:12.242Z,102022.14
2018-11-11T16:58:41.628Z,102030.09
2018-11-11T17:01:10.548Z,102031.91
2018-11-11T17:03:39.843Z,102029.70
2018-11-11T17:06:08.959Z,102042.08
2018-11-11T17:08:43.963Z,102038.95
2018-11-11T17:11:14.245Z,102039.11
2018-11-11T17:13:44.644Z,102041.41
2018-11-11T17:16:13.704Z,102043.81
2018-11-11T17:18:44.512Z,102049.80
2018-11-11T17:21:13.691Z,102050.55
2018-11-11T17:23:42.788Z,102046.25
2018-11-11T17:26:12.008Z,102045.72
2018-11-11T17:28:41.097Z,102049.56
2018-11-11T17:31:11.621Z,102048.88
2018-11-11T17:33:40.622Z,102049.33
2018-11-11T17:36:09.576Z,102055.69
2018-11-11T17:38:39.923Z,102051.60
2018-11-11T17:41:08.914Z,102059.66
2018-11-11T17:43:39.292Z,102057.58
2018-11-11T17:46:09.605Z,102055.76
2018-11-11T17:48:38.844Z,102062.87
2018-11-11T17:51:07.831Z,102066.48
2018-11-11T17:53:37.010Z,102072.14
2018-11-11T17:56:06.184Z,102065.94
2018-11-11T17:58:35.221Z,102069.92
2018-11-11T18:01:04.391Z,102074.00
2018-11-11T18:03:33.679Z,102073.84
2018-11-11T18:06:02.587Z,102071.85
2018-11-11T18:08:31.587Z,102073.61
2018-11-11T18:11:00.597Z,102074.09
2018-11-11T18:13:29.633Z,102077.84
2018-11-11T18:15:58.577Z,102078.52
2018-11-11T18:18:27.552Z,102083.86
2018-11-11T18:20:56.572Z,102075.30
2018-11-11T18:23:25.480Z,102084.65
2018-11-11T18:25:54.404Z,102079.89
2018-11-11T18:28:23.527Z,102082.48
2018-11-11T18:30:52.461Z,102080.91
2018-11-11T18:33:21.449Z,102083.95
2018-11-11T18:35:50.395Z,102086.08
2018-11-11T18:38:19.520Z,102079.95
2018-11-11T18:40:48.440Z,102084.71
2018-11-11T18:43:17.399Z,102088.31
2018-11-11T18:45:46.522Z,102091.62
2018-11-11T18:48:15.600Z,102092.07
2018-11-11T18:50:44.617Z,102088.38
2018-11-11T18:53:13.590Z,102094.28
2018-11-11T18:55:42.609Z,102094.28
2018-11-11T18:58:11.571Z,102097.83
2018-11-11T19:00:40.649Z,102094.61
2018-11-11T19:03:09.731Z,102097.98
2018-11-11T19:05:38.669Z,102098.50
2018-11-11T19:08:07.643Z,102095.61
2018-11-11T19:10:36.762Z,102100.40
2018-11-11T19:13:13.709Z,102100.73
2018-11-11T19:15:42.985Z,102107.51
2018-11-11T19:18:11.914Z,102075.78
2018-11-11T19:20:40.800Z,102105.81
2018-11-11T19:23:09.790Z,102110.06
2018-11-11T19:25:38.764Z,102101.66
2018-11-11T19:28:07.713Z,102107.17
2018-11-11T19:30:36.806Z,102104.41
2018-11-11T19:33:05.824Z,102105.50
2018-11-11T19:35:34.819Z,102100.45
2018-11-11T19:38:03.896Z,102105.41
2018-11-11T19:40:32.959Z,102108.20
2018-11-11T19:43:02.430Z,102119.51
2018-11-11T19:45:32.118Z,102110.36
2018-11-11T19:48:01.217Z,102121.20
2018-11-11T19:50:30.837Z,102115.45
2018-11-11T19:53:00.136Z,102123.75
2018-11-11T19:55:29.141Z,102119.58
2018-11-11T19:57:58.077Z,102116.75
2018-11-11T20:00:29.779Z,102118.66
2018-11-11T20:02:59.678Z,102117.94
2018-11-11T20:05:28.701Z,102118.64
2018-11-11T20:07:58.646Z,102126.36
2018-11-11T20:10:29.129Z,102128.27
2018-11-11T20:12:58.436Z,102127.89
2018-11-11T20:15:28.783Z,102127.66
2018-11-11T20:17:57.702Z,102135.78
2018-11-11T20:20:29.835Z,102131.08
2018-11-11T20:22:58.867Z,102139.76
2018-11-11T20:25:27.941Z,102134.84
2018-11-11T20:27:57.297Z,102130.00
2018-11-11T20:30:27.884Z,102131.37
2018-11-11T20:32:57.105Z,102129.36
2018-11-11T20:35:27.530Z,102136.97
2018-11-11T20:37:56.497Z,102135.89
2018-11-11T20:40:26.311Z,102134.84
2018-11-11T20:42:57.032Z,102134.02
2018-11-11T20:45:27.594Z,102133.45
2018-11-11T20:47:56.702Z,102127.17
2018-11-11T20:50:26.988Z,102126.62
2018-11-11T20:52:57.588Z,102126.65
2018-11-11T20:55:26.563Z,102129.80
2018-11-11T20:57:55.642Z,102133.93
2018-11-11T21:00:26.886Z,102131.45
2018-11-11T21:02:55.910Z,102132.63
2018-11-11T21:05:26.124Z,102136.66
2018-11-11T21:07:55.077Z,102141.53
2018-11-11T21:10:25.423Z,102134.09
2018-11-11T21:12:54.589Z,102139.30
2018-11-11T21:15:24.738Z,102138.06
2018-11-11T21:17:53.679Z,102145.14
2018-11-11T21:20:26.973Z,102148.53
2018-11-11T21:22:55.880Z,102147.53
2018-11-11T21:25:24.951Z,102149.02
2018-11-11T21:27:54.252Z,102155.38
2018-11-11T21:30:24.478Z,102162.47
2018-11-11T21:32:53.649Z,102157.53
2018-11-11T21:35:22.543Z,102168.50
2018-11-11T21:37:51.518Z,102160.84
2018-11-11T21:40:21.834Z,102162.17
2018-11-11T21:42:51.309Z,102160.19
2018-11-11T21:45:22.777Z,102161.48
2018-11-11T21:47:51.727Z,102160.88
2018-11-11T21:50:22.042Z,102163.33
2018-11-11T21:53:55.611Z,102166.95
2018-11-11T21:56:24.552Z,102154.47
2018-11-11T21:58:53.568Z,102157.53
2018-11-11T22:01:22.644Z,102158.58
2018-11-11T22:03:51.636Z,102153.31
2018-11-11T22:06:20.576Z,102160.88
2018-11-11T22:08:49.475Z,102164.52
2018-11-11T22:11:18.345Z,102161.52
2018-11-11T22:13:47.248Z,102161.52
2018-11-11T22:16:16.135Z,102162.00
2018-11-11T22:18:45.094Z,102165.56
2018-11-11T22:21:14.159Z,102160.70
2018-11-11T22:23:43.201Z,102160.88
2018-11-11T22:26:12.212Z,102166.67
2018-11-11T22:28:41.225Z,102171.28
2018-11-11T22:31:10.213Z,102166.47
2018-11-11T22:33:39.273Z,102164.03
2018-11-11T22:36:08.360Z,102167.99
2018-11-11T22:38:37.263Z,102169.88
2018-11-11T22:41:06.275Z,102171.30
2018-11-11T22:43:36.444Z,102168.23
2018-11-11T22:46:05.472Z,102163.11
2018-11-11T22:48:34.401Z,102166.23
2018-11-11T22:51:03.427Z,102167.25
2018-11-11T22:53:32.447Z,102163.75
2018-11-11T22:56:01.423Z,102161.28
2018-11-11T22:58:30.356Z,102163.44
2018-11-11T23:01:04.778Z,102171.24
2018-11-11T23:03:33.685Z,102166.02
2018-11-11T23:06:02.611Z,102163.84
2018-11-11T23:08:31.515Z,102165.27
2018-11-11T23:11:00.394Z,102164.09
2018-11-11T23:13:29.283Z,102167.06
2018-11-11T23:15:58.307Z,102163.62
2018-11-11T23:18:27.255Z,102166.17
2018-11-11T23:20:56.289Z,102167.34
2018-11-11T23:23:25.278Z,102166.42
2018-11-11T23:25:54.174Z,102168.69
2018-11-11T23:28:23.195Z,102168.50
2018-11-11T23:30:52.182Z,102172.59
2018-11-11T23:33:21.068Z,102173.55
2018-11-11T23:35:50.008Z,102168.35
2018-11-11T23:38:19.002Z,102170.08
2018-11-11T23:40:47.935Z,102171.64
2018-11-11T23:43:16.920Z,102171.05
2018-11-11T23:45:46.296Z,102176.13
2018-11-11T23:48:15.211Z,102171.51
2018-11-11T23:50:44.135Z,102172.22
2018-11-11T23:53:13.156Z,102176.04
2018-11-11T23:55:42.080Z,102174.61
2018-11-11T23:58:11.046Z,102178.59
